Terminal Aerodrome Forecast
Issued by NWS

Home | Current Version | Previous Version | Text Only | Print | Product List | Glossary On
Versions: 1 2 3 4 5 6 7 8 9 10 11 12 13 14 15 16 17 18 19 20 21 22 23 24 25 26 27 28
000
FTUS46 KMTR 061700
TAFSFO
TAF
KSFO 061734Z 0618/0724 VRB06KT P6SM FEW018
     FM061900 29018G25KT P6SM FEW020
     FM062200 28025G30KT P6SM FEW020
     FM070300 27015G20KT P6SM FEW015
     FM070900 26013G18KT P6SM BKN015
     FM071500 28011G16KT P6SM SCT020=

USA.gov is the U.S. government's official web portal to all federal, state and local government web resources and services.